Time;durP1;ratioP1;P1;durP2;ratioP2;P2;SDS_P1;SDS_P2;PMS_P1;PMS_P2;Temp;Humidity;BMP_temperature;BMP_pressure;BME280_temperature;BME280_humidity;BME280_pressure;Samples;Min_cycle;Max_cycle;Signal;HPM_P1;HPM_P2
2022/08/04 00:01:35;;;;;;;13.18;6.53;;;19.60;99.90;;;;;;5061861;28;20056;-50
2022/08/04 00:04:25;;;;;;;12.60;6.25;;;19.50;99.90;;;;;;5065968;28;20064;-55
2022/08/04 00:07:09;;;;;;;14.65;6.63;;;19.50;99.90;;;;;;5004291;28;20217;-55
2022/08/04 00:09:50;;;;;;;12.55;6.03;;;19.40;99.90;;;;;;5003750;28;20061;-55
2022/08/04 00:12:18;;;;;;;13.18;5.85;;;19.40;99.90;;;;;;5003959;28;20539;-54
2022/08/04 00:14:51;;;;;;;10.70;5.93;;;19.40;99.90;;;;;;4997104;28;20054;-53
2022/08/04 00:17:22;;;;;;;10.18;6.03;;;19.50;99.90;;;;;;5003858;28;20520;-52
2022/08/04 00:19:54;;;;;;;8.10;5.60;;;19.40;99.90;;;;;;5003062;28;20046;-53
2022/08/04 00:22:25;;;;;;;12.43;6.43;;;19.40;99.90;;;;;;5003839;28;20111;-54
2022/08/04 00:24:53;;;;;;;17.83;7.13;;;19.40;99.90;;;;;;5004027;28;20608;-54
2022/08/04 00:27:19;;;;;;;10.77;6.78;;;19.40;99.90;;;;;;5004234;28;20085;-52
2022/08/04 00:29:47;;;;;;;14.55;6.57;;;19.40;99.90;;;;;;5003410;28;20538;-52
2022/08/04 00:32:17;;;;;;;12.40;5.85;;;19.30;99.90;;;;;;5003697;28;20152;-54
2022/08/04 00:34:45;;;;;;;12.05;5.88;;;19.30;99.90;;;;;;5002994;28;20162;-53
2022/08/04 00:37:13;;;;;;;10.73;6.45;;;19.30;99.90;;;;;;5003473;28;20873;-52
2022/08/04 00:39:40;;;;;;;11.90;6.10;;;19.30;99.90;;;;;;5002753;28;20551;-53
2022/08/04 00:42:20;;;;;;;11.77;6.10;;;19.30;99.90;;;;;;5002672;28;20053;-54
2022/08/04 00:45:19;;;;;;;11.50;5.55;;;19.30;99.90;;;;;;5048977;28;20067;-54
2022/08/04 00:47:45;;;;;;;9.90;5.80;;;19.30;99.90;;;;;;5062436;28;20052;-53
2022/08/04 00:50:41;;;;;;;12.85;5.82;;;19.30;99.90;;;;;;5064935;28;20144;-55
2022/08/04 00:53:28;;;;;;;11.43;5.88;;;19.30;99.90;;;;;;5017875;28;20057;-56
2022/08/04 00:56:10;;;;;;;11.55;6.28;;;19.30;99.90;;;;;;5023152;28;20057;-53
2022/08/04 00:58:59;;;;;;;9.98;6.07;;;19.30;99.90;;;;;;5006687;28;20068;-51
2022/08/04 01:02:02;;;;;;;9.02;5.65;;;19.30;99.90;;;;;;5022356;28;20575;-53
2022/08/04 01:05:06;;;;;;;14.95;6.85;;;19.30;99.90;;;;;;5022405;28;20729;-54
2022/08/04 01:08:04;;;;;;;11.95;5.95;;;19.20;99.90;;;;;;5023049;28;20050;-53
2022/08/04 01:10:51;;;;;;;13.63;6.47;;;19.20;99.90;;;;;;5023464;28;20097;-51
2022/08/04 01:13:48;;;;;;;14.40;5.97;;;19.20;99.90;;;;;;5020108;28;20053;-51
2022/08/04 01:16:16;;;;;;;9.95;6.10;;;19.20;99.90;;;;;;5020410;28;20112;-52
2022/08/04 01:18:50;;;;;;;14.80;6.68;;;19.20;99.90;;;;;;5022393;28;20105;-51
2022/08/04 01:21:28;;;;;;;12.63;6.65;;;19.20;99.90;;;;;;5021362;28;20439;-49
2022/08/04 01:24:21;;;;;;;10.50;5.70;;;19.10;99.90;;;;;;5020770;28;20068;-52
2022/08/04 01:26:51;;;;;;;16.70;6.05;;;19.20;99.90;;;;;;5021397;28;20049;-52
2022/08/04 01:29:25;;;;;;;14.13;6.68;;;19.20;99.90;;;;;;5028589;28;20052;-53
2022/08/04 01:32:23;;;;;;;8.75;5.50;;;19.20;99.90;;;;;;5064093;28;20487;-53
2022/08/04 01:35:03;;;;;;;10.70;5.55;;;19.20;99.90;;;;;;5000957;28;20145;-54
2022/08/04 01:37:56;;;;;;;12.00;6.53;;;19.20;99.90;;;;;;5001715;28;20447;-55
2022/08/04 01:40:24;;;;;;;;;;;19.20;99.90;;;;;;5000167;28;20144;-52
2022/08/04 01:42:52;;;;;;;12.18;5.60;;;19.20;99.90;;;;;;5000255;28;19933;-56
2022/08/04 01:45:19;;;;;;;13.55;6.25;;;19.20;99.90;;;;;;5002067;28;20125;-52
2022/08/04 01:47:53;;;;;;;11.35;6.45;;;19.20;99.90;;;;;;4985808;28;20069;-54
2022/08/04 01:50:20;;;;;;;14.75;6.78;;;19.20;99.90;;;;;;5002332;28;20073;-53
2022/08/04 01:52:47;;;;;;;9.77;5.40;;;19.20;99.90;;;;;;5002207;28;20058;-52
2022/08/04 01:55:16;;;;;;;13.57;6.03;;;19.20;99.90;;;;;;4985398;28;20053;-52
2022/08/04 01:58:02;;;;;;;9.60;6.07;;;19.20;99.90;;;;;;5002715;28;20054;-52
2022/08/04 02:00:28;;;;;;;10.68;6.63;;;19.20;99.90;;;;;;5001920;28;20144;-52
2022/08/04 02:02:56;;;;;;;11.60;6.38;;;19.20;99.90;;;;;;5001813;28;20220;-51
2022/08/04 02:05:24;;;;;;;13.00;6.18;;;19.30;99.90;;;;;;5001241;28;20061;-54
2022/08/04 02:08:13;;;;;;;14.68;7.18;;;19.30;99.90;;;;;;5000944;28;20123;-52
2022/08/04 02:11:11;;;;;;;12.27;6.45;;;19.30;99.90;;;;;;5000641;28;20415;-52
2022/08/04 02:13:53;;;;;;;10.77;6.90;;;19.30;99.90;;;;;;5034548;28;20499;-51
2022/08/04 02:16:46;;;;;;;11.85;6.35;;;19.30;99.90;;;;;;5043860;28;20040;-50
2022/08/04 02:19:26;;;;;;;12.05;6.32;;;19.30;99.90;;;;;;5044014;28;20473;-52
2022/08/04 02:21:56;;;;;;;13.38;7.28;;;19.20;99.90;;;;;;5044101;28;20053;-53
2022/08/04 02:24:28;;;;;;;11.02;6.55;;;19.20;99.90;;;;;;5043752;28;20068;-52
2022/08/04 02:26:56;;;;;;;13.45;7.13;;;19.20;99.90;;;;;;5043285;28;20056;-52
2022/08/04 02:29:55;;;;;;;11.88;7.05;;;19.20;99.90;;;;;;5043601;28;20435;-56
2022/08/04 02:32:32;;;;;;;12.85;7.63;;;19.20;99.90;;;;;;5044794;28;20084;-53
2022/08/04 02:35:07;;;;;;;9.88;6.53;;;19.10;99.90;;;;;;5044185;28;20067;-53
2022/08/04 02:37:34;;;;;;;11.52;6.90;;;19.10;99.90;;;;;;5055129;28;20616;-50
2022/08/04 02:40:03;;;;;;;11.50;6.80;;;19.10;99.90;;;;;;5063551;28;20097;-51
2022/08/04 02:42:32;;;;;;;11.60;7.28;;;19.10;99.90;;;;;;5063614;28;20053;-52
2022/08/04 02:45:00;;;;;;;9.90;6.40;;;19.10;99.90;;;;;;5044100;28;20064;-51
2022/08/04 02:47:28;;;;;;;13.48;6.30;;;19.10;99.90;;;;;;5063115;28;20055;-55
2022/08/04 02:49:57;;;;;;;15.32;6.78;;;19.10;99.90;;;;;;5063229;28;20052;-51
2022/08/04 02:52:24;;;;;;;10.77;7.28;;;19.10;99.90;;;;;;5062669;28;20053;-50
2022/08/04 02:54:53;;;;;;;10.32;7.47;;;19.10;99.90;;;;;;5063721;28;20052;-49
2022/08/04 02:57:23;;;;;;;11.02;7.47;;;19.10;99.90;;;;;;5064325;28;20040;-52
2022/08/04 03:00:14;;;;;;;15.52;7.88;;;19.10;99.90;;;;;;5062262;28;20589;-55
2022/08/04 03:03:15;;;;;;;14.07;7.35;;;19.10;99.90;;;;;;5082182;28;20532;-51
2022/08/04 03:05:53;;;;;;;10.77;6.53;;;19.10;99.90;;;;;;5082584;28;20478;-53
2022/08/04 03:08:35;;;;;;;11.10;6.85;;;19.10;99.90;;;;;;5081895;28;20090;-53
2022/08/04 03:11:28;;;;;;;14.80;7.47;;;19.10;99.90;;;;;;5063410;28;20501;-54
2022/08/04 03:14:07;;;;;;;11.45;7.05;;;19.10;99.90;;;;;;5083547;28;20048;-52
2022/08/04 03:16:57;;;;;;;11.52;6.38;;;19.10;99.90;;;;;;5082987;28;20056;-53
2022/08/04 03:19:55;;;;;;;8.27;6.55;;;19.10;99.90;;;;;;5082366;28;20110;-53
2022/08/04 03:22:47;;;;;;;12.38;7.63;;;19.00;99.90;;;;;;5084900;28;20491;-52
2022/08/04 03:25:29;;;;;;;16.58;7.15;;;19.00;99.90;;;;;;5083949;28;20055;-51
2022/08/04 03:28:16;;;;;;;12.35;6.22;;;19.00;99.90;;;;;;5083043;28;20429;-52
2022/08/04 03:30:51;;;;;;;10.60;6.53;;;18.90;99.90;;;;;;5083522;28;20097;-52
2022/08/04 03:33:25;;;;;;;14.18;7.93;;;18.90;99.90;;;;;;5083915;28;20044;-53
2022/08/04 03:36:28;;;;;;;11.68;7.75;;;18.90;99.90;;;;;;5084209;28;20047;-49
2022/08/04 03:39:08;;;;;;;8.32;7.03;;;18.90;99.90;;;;;;5083213;28;20051;-49
2022/08/04 03:41:52;;;;;;;10.73;7.65;;;18.90;99.90;;;;;;5078241;28;20052;-52
2022/08/04 03:44:51;;;;;;;12.00;7.93;;;18.90;99.90;;;;;;5084672;28;20741;-53
2022/08/04 03:47:55;;;;;;;12.38;7.55;;;18.80;99.90;;;;;;5087699;28;20054;-51
2022/08/04 03:53:57;;;;;;;13.65;8.95;;;18.80;99.90;;;;;;5076362;28;20052;-50
2022/08/04 03:56:49;;;;;;;20.13;11.07;;;18.80;99.90;;;;;;5081199;28;20501;-52
2022/08/04 03:59:40;;;;;;;18.20;11.18;;;18.70;99.90;;;;;;4992013;28;20065;-51
2022/08/04 04:02:34;;;;;;;18.83;10.10;;;18.70;99.90;;;;;;4996490;28;20127;-54
2022/08/04 04:05:35;;;;;;;20.15;11.40;;;18.60;99.90;;;;;;4999260;28;20069;-49
2022/08/04 04:08:20;;;;;;;23.85;10.55;;;18.60;99.90;;;;;;4999000;28;20046;-50
2022/08/04 04:11:04;;;;;;;24.23;11.05;;;18.70;99.90;;;;;;4999271;28;20540;-51
2022/08/04 04:13:43;;;;;;;20.70;11.68;;;18.70;99.90;;;;;;4991250;28;20108;-53
2022/08/04 04:16:27;;;;;;;18.75;9.82;;;18.60;99.90;;;;;;4974176;28;20117;-49
2022/08/04 04:19:04;;;;;;;21.77;10.80;;;18.70;99.90;;;;;;4990095;28;20152;-49
2022/08/04 04:21:50;;;;;;;17.23;9.13;;;18.60;99.90;;;;;;4999681;28;20054;-54
2022/08/04 04:24:38;;;;;;;13.38;7.82;;;18.70;99.90;;;;;;4994182;28;20614;-49
2022/08/04 04:27:23;;;;;;;10.65;7.60;;;18.70;99.90;;;;;;4999174;28;20107;-50
2022/08/04 04:29:59;;;;;;;15.50;8.35;;;18.70;99.90;;;;;;4999653;28;20488;-51
2022/08/04 04:32:52;;;;;;;12.77;7.43;;;18.80;99.90;;;;;;4999444;28;20416;-49
2022/08/04 04:35:22;;;;;;;10.30;7.53;;;18.80;99.90;;;;;;4997876;28;20102;-49
2022/08/04 04:38:07;;;;;;;13.65;8.35;;;18.80;99.90;;;;;;5081507;28;20051;-51
2022/08/04 04:40:53;;;;;;;13.73;9.15;;;18.80;99.90;;;;;;5082111;28;20449;-50
2022/08/04 04:43:40;;;;;;;10.63;8.10;;;18.90;99.90;;;;;;5081017;28;20071;-51
2022/08/04 04:46:09;;;;;;;12.80;8.07;;;18.90;99.90;;;;;;5081167;28;20040;-51
2022/08/04 04:48:40;;;;;;;12.50;8.50;;;19.10;99.90;;;;;;5081278;28;20516;-50
2022/08/04 04:51:15;;;;;;;11.02;8.38;;;19.20;99.90;;;;;;5082102;28;20055;-53
2022/08/04 04:54:19;;;;;;;10.98;8.50;;;19.50;99.90;;;;;;5082239;28;20055;-50
2022/08/04 04:56:52;;;;;;;12.38;8.98;;;19.80;99.90;;;;;;5079516;28;20044;-54
2022/08/04 04:59:21;;;;;;;14.27;9.52;;;20.00;99.90;;;;;;5081840;28;20425;-50
2022/08/04 05:01:55;;;;;;;16.40;8.65;;;20.20;99.90;;;;;;5080786;28;20063;-52
2022/08/04 05:04:26;;;;;;;13.43;7.80;;;20.40;99.90;;;;;;5081779;28;20479;-53
2022/08/04 05:07:16;;;;;;;12.00;8.93;;;20.60;99.90;;;;;;5082834;28;20056;-50
2022/08/04 05:09:51;;;;;;;17.67;10.38;;;20.80;99.90;;;;;;5087112;28;20074;-53
2022/08/04 05:12:57;;;;;;;14.52;9.75;;;21.10;99.90;;;;;;5083052;28;20121;-51
2022/08/04 05:15:29;;;;;;;11.85;9.00;;;21.30;99.90;;;;;;5080620;28;20131;-51
2022/08/04 05:17:57;;;;;;;14.23;9.50;;;21.70;99.90;;;;;;5081172;28;20051;-54
2022/08/04 05:20:40;;;;;;;11.32;9.10;;;21.80;99.90;;;;;;5081243;28;20059;-52
2022/08/04 05:23:10;;;;;;;10.82;9.48;;;22.10;99.90;;;;;;5077413;28;20055;-54
2022/08/04 05:26:09;;;;;;;11.80;9.05;;;22.40;99.90;;;;;;5081255;28;20071;-53
2022/08/04 05:28:49;;;;;;;13.95;8.85;;;22.60;99.90;;;;;;5080338;28;20053;-54
2022/08/04 05:31:31;;;;;;;13.25;9.82;;;23.00;99.90;;;;;;5063000;28;20047;-51
2022/08/04 05:34:08;;;;;;;14.63;9.85;;;23.70;99.90;;;;;;5081260;28;20113;-52
2022/08/04 05:36:40;;;;;;;14.82;9.82;;;24.20;99.90;;;;;;5080013;28;20477;-54
2022/08/04 05:39:11;;;;;;;12.13;8.65;;;24.40;99.90;;;;;;5081193;28;20040;-54
2022/08/04 05:41:39;;;;;;;13.68;8.55;;;24.70;99.90;;;;;;5081497;28;20253;-52
2022/08/04 05:44:07;;;;;;;14.35;9.18;;;25.30;99.90;;;;;;5079608;28;20597;-51
2022/08/04 05:46:35;;;;;;;12.73;9.95;;;25.90;99.90;;;;;;5079497;28;20094;-52
2022/08/04 05:49:02;;;;;;;13.35;9.93;;;26.00;99.90;;;;;;5080683;28;20044;-54
2022/08/04 05:51:29;;;;;;;12.50;9.23;;;26.30;99.90;;;;;;5081226;28;20509;-53
2022/08/04 05:53:57;;;;;;;12.68;9.15;;;26.40;99.90;;;;;;5080625;28;20474;-53
2022/08/04 05:56:25;;;;;;;11.95;8.95;;;26.90;99.90;;;;;;5079603;28;20156;-52
2022/08/04 05:58:51;;;;;;;13.07;9.00;;;27.10;99.90;;;;;;5081071;28;20067;-54
2022/08/04 06:01:19;;;;;;;13.00;9.52;;;27.30;99.90;;;;;;5080056;28;20140;-54
2022/08/04 06:03:47;;;;;;;11.52;8.70;;;27.20;99.90;;;;;;5080954;28;20058;-54
2022/08/04 06:06:20;;;;;;;12.02;8.52;;;27.50;99.90;;;;;;5079871;28;20503;-55
2022/08/04 06:08:45;;;;;;;;;;;27.40;99.90;;;;;;5079758;28;20058;-55
2022/08/04 06:11:14;;;;;;;14.00;8.15;;;27.30;99.90;;;;;;5081445;28;19923;-52
2022/08/04 06:13:48;;;;;;;14.50;8.63;;;27.80;99.90;;;;;;5054352;28;20482;-53
2022/08/04 06:16:41;;;;;;;11.15;8.20;;;27.90;99.90;;;;;;5081002;28;20126;-54
2022/08/04 06:19:09;;;;;;;;;;;27.90;99.90;;;;;;5078855;28;20469;-53
2022/08/04 06:21:38;;;;;;;11.02;8.02;;;27.70;99.90;;;;;;5081549;28;19924;-55
2022/08/04 06:24:09;;;;;;;12.40;8.43;;;27.90;99.90;;;;;;5081212;28;20387;-55
2022/08/04 06:26:36;;;;;;;14.05;9.23;;;28.40;99.90;;;;;;5080925;28;20048;-55
2022/08/04 06:29:03;;;;;;;13.30;9.40;;;28.40;99.90;;;;;;5081893;28;20051;-55
2022/08/04 06:31:42;;;;;;;9.93;8.60;;;27.90;99.90;;;;;;5082921;28;20121;-56
2022/08/04 06:34:10;;;;;;;15.13;10.05;;;27.60;99.90;;;;;;5083885;28;20112;-51
2022/08/04 06:36:41;;;;;;;12.35;8.48;;;27.20;99.90;;;;;;5080501;28;20052;-58
2022/08/04 06:39:12;;;;;;;16.67;10.43;;;26.90;99.90;;;;;;5082013;28;20056;-56
2022/08/04 06:41:38;;;;;;;11.63;9.13;;;26.90;99.90;;;;;;5083296;28;20047;-54
2022/08/04 06:44:08;;;;;;;11.60;9.65;;;26.60;99.90;;;;;;5081132;28;20051;-55
2022/08/04 06:46:36;;;;;;;17.15;9.65;;;26.30;99.90;;;;;;5060490;28;20067;-54
2022/08/04 06:49:03;;;;;;;12.30;8.95;;;26.00;99.90;;;;;;5080667;28;20052;-56
2022/08/04 06:51:30;;;;;;;14.43;9.05;;;26.10;99.90;;;;;;5080159;28;20048;-54
2022/08/04 06:53:56;;;;;;;13.65;9.63;;;26.10;99.90;;;;;;5080350;28;20576;-55
2022/08/04 06:56:24;;;;;;;11.68;8.75;;;26.20;99.90;;;;;;5079045;28;20052;-55
2022/08/04 06:58:52;;;;;;;11.40;8.93;;;26.60;99.90;;;;;;5081702;28;20065;-55
2022/08/04 07:01:19;;;;;;;11.15;9.00;;;26.80;99.90;;;;;;5078664;28;20098;-56
2022/08/04 07:03:46;;;;;;;11.10;8.55;;;27.00;99.90;;;;;;5079508;28;20887;-54
2022/08/04 07:06:12;;;;;;;11.15;8.73;;;27.40;99.90;;;;;;5078034;28;20521;-57
2022/08/04 07:08:38;;;;;;;12.38;8.60;;;27.50;99.90;;;;;;5079344;28;20442;-55
2022/08/04 07:11:05;;;;;;;15.07;9.95;;;27.60;99.90;;;;;;5079718;28;20619;-55
2022/08/04 07:13:32;;;;;;;13.52;8.68;;;27.40;99.90;;;;;;5072110;28;20500;-56
2022/08/04 07:15:59;;;;;;;12.07;8.18;;;27.30;99.90;;;;;;5079271;28;20105;-55
2022/08/04 07:18:28;;;;;;;12.88;8.65;;;27.20;99.90;;;;;;5079182;28;20155;-55
2022/08/04 07:20:57;;;;;;;14.32;9.00;;;27.40;99.90;;;;;;5079190;28;20056;-55
2022/08/04 07:23:25;;;;;;;11.77;8.93;;;27.20;99.90;;;;;;5078992;28;20048;-55
2022/08/04 07:25:56;;;;;;;14.35;8.20;;;27.20;99.90;;;;;;5078487;28;20063;-54
2022/08/04 07:28:28;;;;;;;13.45;9.13;;;27.00;99.90;;;;;;5078920;28;20050;-56
2022/08/04 07:30:56;;;;;;;14.30;7.90;;;26.90;99.90;;;;;;5078901;28;20081;-56
2022/08/04 07:33:23;;;;;;;12.45;7.18;;;26.80;99.90;;;;;;5078538;28;20052;-54
2022/08/04 07:35:53;;;;;;;11.30;7.40;;;26.90;99.90;;;;;;5079194;28;20071;-56
2022/08/04 07:38:18;;;;;;;14.98;6.95;;;27.10;99.90;;;;;;5078684;28;20491;-56
2022/08/04 07:40:46;;;;;;;12.82;6.93;;;27.20;99.90;;;;;;5079811;28;20044;-58
2022/08/04 07:43:15;;;;;;;13.88;7.63;;;27.40;99.90;;;;;;5061593;28;20044;-57
2022/08/04 07:45:41;;;;;;;11.68;7.32;;;27.70;99.90;;;;;;5079983;28;20056;-55
2022/08/04 07:48:09;;;;;;;14.68;6.97;;;27.80;99.90;;;;;;5082134;28;20066;-57
2022/08/04 07:50:37;;;;;;;13.85;7.03;;;27.80;99.90;;;;;;5083253;28;20116;-57
2022/08/04 07:53:04;;;;;;;11.85;8.13;;;27.70;99.90;;;;;;5082001;28;20047;-57
2022/08/04 07:55:30;;;;;;;11.02;7.20;;;27.60;99.90;;;;;;5081592;28;20181;-56
2022/08/04 07:57:56;;;;;;;11.10;7.07;;;27.40;99.90;;;;;;5082379;28;20059;-57
2022/08/04 08:00:22;;;;;;;10.30;7.18;;;27.10;99.90;;;;;;5080495;28;20060;-58
2022/08/04 08:02:51;;;;;;;15.82;8.13;;;27.00;99.90;;;;;;5081567;28;20460;-58
2022/08/04 08:05:18;;;;;;;10.57;6.88;;;26.90;99.90;;;;;;5081681;28;20054;-56
2022/08/04 08:07:48;;;;;;;14.98;7.15;;;26.90;99.90;;;;;;5082872;28;20161;-55
2022/08/04 08:10:15;;;;;;;10.32;6.90;;;26.80;99.90;;;;;;5086194;28;20524;-56
2022/08/04 08:12:42;;;;;;;12.65;6.97;;;26.80;99.90;;;;;;5064022;28;20052;-56
2022/08/04 08:15:11;;;;;;;8.68;6.95;;;26.90;99.90;;;;;;5060226;28;20049;-55
2022/08/04 08:17:38;;;;;;;11.20;6.57;;;27.00;99.90;;;;;;5082532;28;20068;-57
2022/08/04 08:20:06;;;;;;;9.43;6.07;;;27.00;99.90;;;;;;5083950;28;20047;-58
2022/08/04 08:22:32;;;;;;;11.10;6.40;;;26.90;99.90;;;;;;5064580;28;20067;-57
2022/08/04 08:24:58;;;;;;;9.80;6.97;;;27.00;99.90;;;;;;5082032;28;20047;-57
2022/08/04 08:27:25;;;;;;;9.30;6.18;;;27.20;99.90;;;;;;5064491;28;20142;-56
2022/08/04 08:29:52;;;;;;;8.93;6.18;;;27.10;99.90;;;;;;5083483;28;20088;-57
2022/08/04 08:32:18;;;;;;;13.23;6.68;;;27.20;99.90;;;;;;5085586;28;20062;-57
2022/08/04 08:34:46;;;;;;;8.75;6.50;;;27.10;99.90;;;;;;5064614;28;20048;-57
2022/08/04 08:37:30;;;;;;;12.18;6.43;;;27.10;99.90;;;;;;5087288;28;20093;-57
2022/08/04 08:40:13;;;;;;;10.02;5.75;;;27.30;99.90;;;;;;5086098;28;20122;-55
2022/08/04 08:42:51;;;;;;;12.63;6.18;;;27.30;99.90;;;;;;5085603;28;20048;-57
2022/08/04 08:45:32;;;;;;;8.75;5.40;;;27.30;99.90;;;;;;5085854;28;20059;-56
2022/08/04 08:48:21;;;;;;;9.77;5.97;;;27.20;99.90;;;;;;5086614;28;20044;-57
2022/08/04 08:51:02;;;;;;;7.97;4.80;;;27.40;99.90;;;;;;5069247;28;20063;-57
2022/08/04 08:53:28;;;;;;;9.43;4.72;;;27.70;99.90;;;;;;5085739;28;20052;-57
2022/08/04 08:56:40;;;;;;;10.07;4.80;;;27.90;99.90;;;;;;5086171;28;20074;-57
2022/08/04 08:59:25;;;;;;;11.18;4.78;;;28.20;99.90;;;;;;4985295;28;20058;-58
2022/08/04 09:02:25;;;;;;;13.10;3.97;;;28.30;99.90;;;;;;4982855;28;20229;-58
2022/08/04 09:05:06;;;;;;;11.43;4.32;;;28.30;99.90;;;;;;4983227;28;20069;-57
2022/08/04 09:08:02;;;;;;;9.35;3.85;;;28.50;99.90;;;;;;4982747;28;20057;-57
2022/08/04 09:10:50;;;;;;;13.10;5.57;;;28.50;99.90;;;;;;4983281;28;20070;-57
2022/08/04 09:13:53;;;;;;;11.90;4.93;;;28.40;99.90;;;;;;4978627;28;20065;-57
2022/08/04 09:16:31;;;;;;;12.27;4.50;;;28.60;99.90;;;;;;4982945;28;20062;-57
2022/08/04 09:19:08;;;;;;;12.95;4.30;;;28.70;99.90;;;;;;4983783;28;20054;-56
2022/08/04 09:21:43;;;;;;;10.88;4.63;;;28.70;99.90;;;;;;4983381;28;20058;-58
2022/08/04 09:24:29;;;;;;;27.38;5.00;;;28.70;99.90;;;;;;4983415;28;20097;-57
2022/08/04 09:27:04;;;;;;;10.63;3.50;;;28.90;99.90;;;;;;4982610;28;20528;-57
2022/08/04 09:29:33;;;;;;;7.13;3.30;;;28.90;99.90;;;;;;4984126;28;20399;-57
2022/08/04 09:31:59;;;;;;;10.13;3.28;;;28.90;99.90;;;;;;4967314;28;20197;-58
2022/08/04 09:34:43;;;;;;;9.63;3.13;;;28.80;99.90;;;;;;4983363;28;20469;-57
2022/08/04 09:37:13;;;;;;;6.80;3.00;;;28.50;99.90;;;;;;5083314;28;20058;-57
2022/08/04 09:40:03;;;;;;;9.23;3.05;;;28.30;99.90;;;;;;5085940;28;20043;-57
2022/08/04 09:42:51;;;;;;;6.35;3.08;;;28.30;99.90;;;;;;5085369;28;20056;-57
2022/08/04 09:45:28;;;;;;;5.78;2.50;;;28.30;99.90;;;;;;5084747;28;20048;-58
2022/08/04 09:47:54;;;;;;;5.70;2.53;;;28.40;99.90;;;;;;5083639;28;20101;-57
2022/08/04 09:50:53;;;;;;;7.90;3.35;;;28.50;99.90;;;;;;5084995;28;20069;-58
2022/08/04 09:53:53;;;;;;;7.78;2.20;;;28.80;99.90;;;;;;5003075;28;20057;-57
2022/08/04 09:56:29;;;;;;;5.20;2.42;;;28.90;99.90;;;;;;5005922;28;20068;-59
2022/08/04 09:59:17;;;;;;;4.15;2.20;;;29.10;99.90;;;;;;5003133;28;20479;-57
2022/08/04 10:01:45;;;;;;;3.67;2.08;;;29.20;99.90;;;;;;5000329;28;20169;-58
2022/08/04 10:04:18;;;;;;;5.30;2.25;;;29.40;99.90;;;;;;5000259;28;20089;-58
2022/08/04 10:07:06;;;;;;;6.00;2.00;;;29.30;99.90;;;;;;5001002;28;20576;-59
2022/08/04 10:10:01;;;;;;;2.88;1.80;;;29.40;99.90;;;;;;5001328;28;20054;-58
2022/08/04 10:12:35;;;;;;;3.60;2.03;;;29.50;99.90;;;;;;5002113;28;20105;-57
2022/08/04 10:15:22;;;;;;;2.72;1.75;;;29.60;99.90;;;;;;5001900;28;20052;-58
2022/08/04 10:18:13;;;;;;;4.85;2.35;;;29.70;99.90;;;;;;5003936;28;20591;-58
2022/08/04 10:20:45;;;;;;;3.38;1.80;;;29.80;99.90;;;;;;5000168;28;20541;-58
2022/08/04 10:23:33;;;;;;;2.70;1.73;;;30.00;99.90;;;;;;5001367;28;20205;-58
2022/08/04 10:26:11;;;;;;;3.35;1.50;;;30.00;99.50;;;;;;5001508;28;20524;-58
2022/08/04 10:28:50;;;;;;;3.47;1.60;;;29.70;98.10;;;;;;5007821;28;20053;-58
2022/08/04 10:31:25;;;;;;;4.88;1.90;;;29.60;97.60;;;;;;5064083;28;20072;-58
2022/08/04 10:34:04;;;;;;;4.43;1.45;;;29.60;97.50;;;;;;5065911;28;20048;-58
2022/08/04 10:37:08;;;;;;;3.30;1.60;;;29.40;97.70;;;;;;5064963;28;20552;-58
2022/08/04 10:42:41;;;;;;;3.33;1.70;;;28.90;97.70;;;;;;5015871;28;20134;-58
2022/08/04 10:45:17;;;;;;;5.25;2.20;;;28.60;97.80;;;;;;5020678;28;20152;-58
2022/08/04 10:47:56;;;;;;;4.53;1.83;;;28.60;98.00;;;;;;5021460;28;20061;-58
2022/08/04 10:50:27;;;;;;;4.43;1.88;;;28.60;98.20;;;;;;5020491;28;20088;-59
2022/08/04 10:53:21;;;;;;;3.42;1.80;;;28.70;98.30;;;;;;5021955;28;20153;-58
2022/08/04 10:56:04;;;;;;;4.72;1.60;;;28.80;98.10;;;;;;5019152;28;20519;-58
2022/08/04 10:58:41;;;;;;;2.88;1.50;;;28.60;97.60;;;;;;5021846;28;20064;-58
2022/08/04 11:01:15;;;;;;;2.78;1.40;;;28.50;98.00;;;;;;5019897;28;20042;-59
2022/08/04 11:03:50;;;;;;;2.75;1.40;;;28.40;98.50;;;;;;5020988;28;20505;-59
2022/08/04 11:06:17;;;;;;;3.20;1.63;;;28.40;98.70;;;;;;5020665;28;20057;-60
2022/08/04 11:08:49;;;;;;;3.72;1.58;;;28.30;97.80;;;;;;5021382;28;20083;-58
2022/08/04 11:11:48;;;;;;;2.20;1.38;;;28.30;98.00;;;;;;5020800;28;20041;-58
2022/08/04 11:14:22;;;;;;;4.25;1.63;;;28.40;98.20;;;;;;5026874;28;20109;-58
2022/08/04 11:17:04;;;;;;;2.55;1.55;;;28.50;98.60;;;;;;5081540;28;20169;-58
2022/08/04 11:19:47;;;;;;;3.65;1.67;;;28.40;98.70;;;;;;5086289;28;20059;-58
2022/08/04 11:22:20;;;;;;;4.38;1.70;;;28.50;98.90;;;;;;5083642;28;20062;-58
2022/08/04 11:25:05;;;;;;;5.13;1.75;;;28.50;98.90;;;;;;5083981;28;20105;-58
2022/08/04 11:27:49;;;;;;;4.13;2.00;;;28.50;98.20;;;;;;5084295;28;20048;-58
2022/08/04 11:30:16;;;;;;;5.10;1.70;;;28.50;98.10;;;;;;5075921;28;20060;-59
2022/08/04 11:32:58;;;;;;;2.97;1.73;;;28.30;97.40;;;;;;5063906;28;20106;-58
2022/08/04 11:35:33;;;;;;;4.53;1.80;;;28.20;97.50;;;;;;5063700;28;20056;-58
2022/08/04 11:38:05;;;;;;;2.80;1.70;;;28.20;97.30;;;;;;5045084;28;20525;-58
2022/08/04 11:40:56;;;;;;;3.85;1.92;;;28.20;97.40;;;;;;5063595;28;20048;-59
2022/08/04 11:43:49;;;;;;;4.57;1.73;;;28.10;97.70;;;;;;5045908;28;20057;-58
2022/08/04 11:46:29;;;;;;;3.97;1.75;;;28.10;97.60;;;;;;5040037;28;20099;-58
2022/08/04 11:49:04;;;;;;;2.88;1.70;;;27.90;96.90;;;;;;5061675;28;20051;-59
2022/08/04 11:51:33;;;;;;;4.75;2.00;;;27.80;97.30;;;;;;5048766;28;20117;-58
2022/08/04 11:54:01;;;;;;;4.60;1.90;;;27.80;97.40;;;;;;5048140;28;20447;-59
2022/08/04 11:56:27;;;;;;;5.03;2.50;;;27.80;97.90;;;;;;5067156;28;20044;-58
2022/08/04 11:58:55;;;;;;;5.63;2.22;;;27.70;97.50;;;;;;5067825;28;20406;-58
2022/08/04 12:01:27;;;;;;;4.45;1.70;;;27.70;97.60;;;;;;5067290;28;20749;-58
2022/08/04 12:04:06;;;;;;;5.85;2.03;;;27.70;97.70;;;;;;5065195;28;20098;-58
2022/08/04 12:06:51;;;;;;;7.10;2.25;;;27.50;97.00;;;;;;5065042;28;20072;-59
2022/08/04 12:09:26;;;;;;;4.63;1.75;;;27.40;96.30;;;;;;5065315;28;20166;-58
2022/08/04 12:12:28;;;;;;;4.18;1.73;;;27.30;97.20;;;;;;5065217;28;20209;-58
2022/08/04 12:15:15;;;;;;;2.90;1.92;;;27.30;97.20;;;;;;5059137;28;20056;-58
2022/08/04 12:18:07;;;;;;;3.92;1.98;;;27.30;97.10;;;;;;5064636;28;20419;-58
2022/08/04 12:20:47;;;;;;;10.38;3.17;;;27.30;97.70;;;;;;4963403;28;20057;-58
2022/08/04 12:23:32;;;;;;;3.88;1.73;;;27.40;97.80;;;;;;4983104;28;20070;-58
2022/08/04 12:26:08;;;;;;;3.50;1.60;;;27.60;97.20;;;;;;4982483;28;20058;-58
2022/08/04 12:28:43;;;;;;;3.55;1.65;;;27.80;97.70;;;;;;4976898;28;20137;-58
2022/08/04 12:31:19;;;;;;;2.58;1.70;;;28.00;98.20;;;;;;4982524;28;20508;-59
2022/08/04 12:34:03;;;;;;;4.70;1.63;;;28.10;97.60;;;;;;4982784;28;20058;-58
2022/08/04 12:36:43;;;;;;;5.50;2.40;;;28.10;97.00;;;;;;4966421;28;20065;-58
2022/08/04 12:39:17;;;;;;;3.58;1.60;;;28.10;97.00;;;;;;4983063;28;20054;-59
2022/08/04 12:42:10;;;;;;;3.97;1.38;;;28.30;97.70;;;;;;4984407;28;20077;-58
2022/08/04 12:44:39;;;;;;;4.57;2.35;;;28.30;96.60;;;;;;4984049;28;20918;-58
2022/08/04 12:47:11;;;;;;;4.40;1.67;;;28.30;96.30;;;;;;4983133;28;20073;-58
2022/08/04 12:49:46;;;;;;;5.47;1.47;;;28.10;95.90;;;;;;4984673;28;20053;-58
2022/08/04 12:52:15;;;;;;;2.70;1.58;;;28.30;98.00;;;;;;4978375;28;20058;-59
2022/08/04 12:54:42;;;;;;;3.17;1.40;;;28.40;97.10;;;;;;4983501;28;20413;-58
2022/08/04 12:57:10;;;;;;;4.15;1.60;;;28.60;97.00;;;;;;5001606;28;20052;-58
2022/08/04 12:59:45;;;;;;;3.13;1.65;;;28.60;96.50;;;;;;5045233;28;20037;-58
2022/08/04 13:02:28;;;;;;;2.35;1.52;;;28.60;96.80;;;;;;5045790;28;20049;-58
2022/08/04 13:04:58;;;;;;;3.08;1.50;;;28.50;96.50;;;;;;5044981;28;20052;-58
2022/08/04 13:07:33;;;;;;;4.80;1.52;;;28.50;96.20;;;;;;5041095;28;20053;-58
2022/08/04 13:10:04;;;;;;;3.78;1.95;;;28.30;95.50;;;;;;5033328;28;20505;-58
2022/08/04 13:12:32;;;;;;;3.50;1.48;;;28.10;96.20;;;;;;5040781;28;20091;-58
2022/08/04 13:15:13;;;;;;;4.53;1.92;;;28.10;96.60;;;;;;5046395;28;20049;-59
2022/08/04 13:18:09;;;;;;;5.05;1.70;;;28.10;95.70;;;;;;5043777;28;20114;-58
2022/08/04 13:20:37;;;;;;;2.92;1.60;;;28.00;95.50;;;;;;5041294;28;20552;-58
2022/08/04 13:23:10;;;;;;;3.13;1.50;;;27.90;96.20;;;;;;5044336;28;20048;-59
2022/08/04 13:25:40;;;;;;;6.07;2.20;;;27.80;96.60;;;;;;5044035;28;20056;-58
2022/08/04 13:28:26;;;;;;;4.07;2.00;;;27.80;96.10;;;;;;5047035;28;20049;-58
2022/08/04 13:30:55;;;;;;;3.70;1.95;;;27.80;96.40;;;;;;5051321;28;20075;-58
2022/08/04 13:33:28;;;;;;;4.15;1.90;;;27.70;95.90;;;;;;5067102;28;20079;-58
2022/08/04 13:35:56;;;;;;;3.58;1.90;;;27.70;96.30;;;;;;5067102;28;20048;-58
2022/08/04 13:38:24;;;;;;;5.18;2.08;;;27.60;96.50;;;;;;5064764;28;20574;-58